sensor_id;sensor_type;location;lat;lon;timestamp;P1;durP1;ratioP1;P2;durP2;ratioP2
72388;SDS011;60566;48.062;9.930;2023-01-26T00:01:57;28.75;;;9.98;;
72388;SDS011;60566;48.062;9.930;2023-01-26T00:04:22;24.35;;;9.63;;
72388;SDS011;60566;48.062;9.930;2023-01-26T00:06:48;25.38;;;10.75;;
72388;SDS011;60566;48.062;9.930;2023-01-26T00:09:13;24.02;;;10.10;;
72388;SDS011;60566;48.062;9.930;2023-01-26T00:11:39;28.52;;;11.40;;
72388;SDS011;60566;48.062;9.930;2023-01-26T00:14:05;25.60;;;9.70;;
72388;SDS011;60566;48.062;9.930;2023-01-26T00:16:31;25.45;;;8.63;;
72388;SDS011;60566;48.062;9.930;2023-01-26T00:18:56;25.52;;;9.85;;
72388;SDS011;60566;48.062;9.930;2023-01-26T00:21:22;20.10;;;8.77;;
72388;SDS011;60566;48.062;9.930;2023-01-26T00:23:48;23.10;;;9.13;;
72388;SDS011;60566;48.062;9.930;2023-01-26T00:26:15;28.33;;;10.32;;
72388;SDS011;60566;48.062;9.930;2023-01-26T00:28:41;27.30;;;9.95;;
72388;SDS011;60566;48.062;9.930;2023-01-26T00:31:09;27.77;;;9.52;;
72388;SDS011;60566;48.062;9.930;2023-01-26T00:33:36;25.73;;;9.27;;
72388;SDS011;60566;48.062;9.930;2023-01-26T00:36:01;29.20;;;10.40;;
72388;SDS011;60566;48.062;9.930;2023-01-26T00:38:27;24.05;;;9.52;;
72388;SDS011;60566;48.062;9.930;2023-01-26T00:40:52;30.45;;;9.85;;
72388;SDS011;60566;48.062;9.930;2023-01-26T00:43:18;26.95;;;9.55;;
72388;SDS011;60566;48.062;9.930;2023-01-26T00:45:43;28.45;;;10.02;;
72388;SDS011;60566;48.062;9.930;2023-01-26T00:48:10;27.25;;;11.27;;
72388;SDS011;60566;48.062;9.930;2023-01-26T00:50:35;33.45;;;10.80;;
72388;SDS011;60566;48.062;9.930;2023-01-26T00:53:00;32.78;;;10.18;;
72388;SDS011;60566;48.062;9.930;2023-01-26T00:55:26;30.27;;;8.57;;
72388;SDS011;60566;48.062;9.930;2023-01-26T00:57:51;28.52;;;10.55;;
72388;SDS011;60566;48.062;9.930;2023-01-26T01:00:17;28.95;;;11.55;;
72388;SDS011;60566;48.062;9.930;2023-01-26T01:02:42;25.35;;;10.70;;
72388;SDS011;60566;48.062;9.930;2023-01-26T01:05:09;30.45;;;10.77;;
72388;SDS011;60566;48.062;9.930;2023-01-26T01:07:35;29.30;;;10.73;;
72388;SDS011;60566;48.062;9.930;2023-01-26T01:10:00;21.05;;;8.00;;
72388;SDS011;60566;48.062;9.930;2023-01-26T01:12:25;28.05;;;10.50;;
72388;SDS011;60566;48.062;9.930;2023-01-26T01:14:51;20.15;;;9.85;;
72388;SDS011;60566;48.062;9.930;2023-01-26T01:17:16;25.38;;;8.38;;
72388;SDS011;60566;48.062;9.930;2023-01-26T01:19:41;24.83;;;8.57;;
72388;SDS011;60566;48.062;9.930;2023-01-26T01:22:08;26.48;;;8.60;;
72388;SDS011;60566;48.062;9.930;2023-01-26T01:24:34;26.85;;;9.40;;
72388;SDS011;60566;48.062;9.930;2023-01-26T01:26:59;17.50;;;7.68;;
72388;SDS011;60566;48.062;9.930;2023-01-26T01:29:25;26.33;;;9.15;;
72388;SDS011;60566;48.062;9.930;2023-01-26T01:31:50;24.50;;;9.38;;
72388;SDS011;60566;48.062;9.930;2023-01-26T01:34:15;25.50;;;8.75;;
72388;SDS011;60566;48.062;9.930;2023-01-26T01:36:41;26.88;;;9.68;;
72388;SDS011;60566;48.062;9.930;2023-01-26T01:39:07;22.63;;;8.35;;
72388;SDS011;60566;48.062;9.930;2023-01-26T01:41:33;27.75;;;8.70;;
72388;SDS011;60566;48.062;9.930;2023-01-26T01:44:11;25.00;;;10.02;;
72388;SDS011;60566;48.062;9.930;2023-01-26T01:46:42;27.60;;;9.18;;
72388;SDS011;60566;48.062;9.930;2023-01-26T01:49:13;29.55;;;9.73;;
72388;SDS011;60566;48.062;9.930;2023-01-26T01:51:42;28.88;;;9.38;;
72388;SDS011;60566;48.062;9.930;2023-01-26T01:54:11;25.30;;;9.15;;
72388;SDS011;60566;48.062;9.930;2023-01-26T01:56:39;29.48;;;10.95;;
72388;SDS011;60566;48.062;9.930;2023-01-26T01:59:07;32.58;;;9.95;;
72388;SDS011;60566;48.062;9.930;2023-01-26T02:01:34;24.15;;;8.68;;
72388;SDS011;60566;48.062;9.930;2023-01-26T02:04:00;26.73;;;9.27;;
72388;SDS011;60566;48.062;9.930;2023-01-26T02:06:27;26.67;;;9.85;;
72388;SDS011;60566;48.062;9.930;2023-01-26T02:08:55;24.42;;;9.18;;
72388;SDS011;60566;48.062;9.930;2023-01-26T02:11:23;25.55;;;10.07;;
72388;SDS011;60566;48.062;9.930;2023-01-26T02:13:49;31.50;;;11.25;;
72388;SDS011;60566;48.062;9.930;2023-01-26T02:16:15;27.30;;;9.52;;
72388;SDS011;60566;48.062;9.930;2023-01-26T02:18:41;24.23;;;9.73;;
72388;SDS011;60566;48.062;9.930;2023-01-26T02:21:07;23.08;;;9.15;;
72388;SDS011;60566;48.062;9.930;2023-01-26T02:23:37;23.67;;;9.18;;
72388;SDS011;60566;48.062;9.930;2023-01-26T02:26:09;23.42;;;9.65;;
72388;SDS011;60566;48.062;9.930;2023-01-26T02:28:36;23.75;;;8.48;;
72388;SDS011;60566;48.062;9.930;2023-01-26T02:31:03;26.67;;;9.23;;
72388;SDS011;60566;48.062;9.930;2023-01-26T02:33:29;27.17;;;10.48;;
72388;SDS011;60566;48.062;9.930;2023-01-26T02:35:56;26.38;;;9.43;;
72388;SDS011;60566;48.062;9.930;2023-01-26T02:38:21;31.33;;;9.63;;
72388;SDS011;60566;48.062;9.930;2023-01-26T02:40:48;28.60;;;9.65;;
72388;SDS011;60566;48.062;9.930;2023-01-26T02:43:16;24.92;;;10.25;;
72388;SDS011;60566;48.062;9.930;2023-01-26T02:45:42;34.78;;;11.55;;
72388;SDS011;60566;48.062;9.930;2023-01-26T02:48:07;27.58;;;9.85;;
72388;SDS011;60566;48.062;9.930;2023-01-26T02:50:33;26.92;;;9.88;;
72388;SDS011;60566;48.062;9.930;2023-01-26T02:52:59;28.25;;;10.30;;
72388;SDS011;60566;48.062;9.930;2023-01-26T02:55:25;25.13;;;9.63;;
72388;SDS011;60566;48.062;9.930;2023-01-26T02:57:51;25.40;;;9.95;;
72388;SDS011;60566;48.062;9.930;2023-01-26T03:00:19;27.48;;;10.75;;
72388;SDS011;60566;48.062;9.930;2023-01-26T03:02:46;24.65;;;10.30;;
72388;SDS011;60566;48.062;9.930;2023-01-26T03:05:13;22.58;;;10.10;;
72388;SDS011;60566;48.062;9.930;2023-01-26T03:07:38;27.13;;;9.55;;
72388;SDS011;60566;48.062;9.930;2023-01-26T03:10:04;25.77;;;9.85;;
72388;SDS011;60566;48.062;9.930;2023-01-26T03:12:30;25.23;;;9.38;;
72388;SDS011;60566;48.062;9.930;2023-01-26T03:14:56;29.45;;;10.10;;
72388;SDS011;60566;48.062;9.930;2023-01-26T03:17:22;22.85;;;9.18;;
72388;SDS011;60566;48.062;9.930;2023-01-26T03:19:48;27.65;;;10.00;;
72388;SDS011;60566;48.062;9.930;2023-01-26T03:22:13;26.75;;;8.93;;
72388;SDS011;60566;48.062;9.930;2023-01-26T03:24:39;27.35;;;9.82;;
72388;SDS011;60566;48.062;9.930;2023-01-26T03:27:04;27.40;;;9.52;;
72388;SDS011;60566;48.062;9.930;2023-01-26T03:29:30;24.27;;;8.05;;
72388;SDS011;60566;48.062;9.930;2023-01-26T03:31:56;19.42;;;8.23;;
72388;SDS011;60566;48.062;9.930;2023-01-26T03:34:23;19.73;;;7.78;;
72388;SDS011;60566;48.062;9.930;2023-01-26T03:36:48;17.95;;;7.00;;
72388;SDS011;60566;48.062;9.930;2023-01-26T03:39:14;20.45;;;8.48;;
72388;SDS011;60566;48.062;9.930;2023-01-26T03:41:39;21.08;;;7.63;;
72388;SDS011;60566;48.062;9.930;2023-01-26T03:44:05;23.38;;;9.82;;
72388;SDS011;60566;48.062;9.930;2023-01-26T03:46:30;21.67;;;8.35;;
72388;SDS011;60566;48.062;9.930;2023-01-26T03:48:55;16.88;;;7.13;;
72388;SDS011;60566;48.062;9.930;2023-01-26T03:51:22;18.75;;;7.80;;
72388;SDS011;60566;48.062;9.930;2023-01-26T03:53:47;18.27;;;7.65;;
72388;SDS011;60566;48.062;9.930;2023-01-26T03:56:13;17.10;;;6.95;;
72388;SDS011;60566;48.062;9.930;2023-01-26T03:58:38;18.98;;;7.05;;
72388;SDS011;60566;48.062;9.930;2023-01-26T04:01:03;21.45;;;8.07;;
72388;SDS011;60566;48.062;9.930;2023-01-26T04:03:29;19.42;;;7.53;;
72388;SDS011;60566;48.062;9.930;2023-01-26T04:05:56;24.63;;;8.10;;
72388;SDS011;60566;48.062;9.930;2023-01-26T04:08:23;18.58;;;7.53;;
72388;SDS011;60566;48.062;9.930;2023-01-26T04:10:49;19.73;;;7.60;;
72388;SDS011;60566;48.062;9.930;2023-01-26T04:13:14;22.80;;;7.03;;
72388;SDS011;60566;48.062;9.930;2023-01-26T04:15:40;21.88;;;7.65;;
72388;SDS011;60566;48.062;9.930;2023-01-26T04:18:05;18.50;;;6.85;;
72388;SDS011;60566;48.062;9.930;2023-01-26T04:20:31;17.83;;;6.80;;
72388;SDS011;60566;48.062;9.930;2023-01-26T04:22:56;17.90;;;7.28;;
72388;SDS011;60566;48.062;9.930;2023-01-26T04:25:23;21.45;;;8.27;;
72388;SDS011;60566;48.062;9.930;2023-01-26T04:27:48;19.73;;;8.15;;
72388;SDS011;60566;48.062;9.930;2023-01-26T04:30:14;20.13;;;7.22;;
72388;SDS011;60566;48.062;9.930;2023-01-26T04:32:40;18.58;;;8.52;;
72388;SDS011;60566;48.062;9.930;2023-01-26T04:35:06;16.85;;;7.07;;
72388;SDS011;60566;48.062;9.930;2023-01-26T04:37:32;17.02;;;6.82;;
72388;SDS011;60566;48.062;9.930;2023-01-26T04:39:57;22.13;;;7.68;;
72388;SDS011;60566;48.062;9.930;2023-01-26T04:42:24;19.20;;;7.68;;
72388;SDS011;60566;48.062;9.930;2023-01-26T04:44:49;20.63;;;7.70;;
72388;SDS011;60566;48.062;9.930;2023-01-26T04:47:15;19.35;;;7.40;;
72388;SDS011;60566;48.062;9.930;2023-01-26T04:49:40;18.45;;;8.20;;
72388;SDS011;60566;48.062;9.930;2023-01-26T04:52:06;22.10;;;7.07;;
72388;SDS011;60566;48.062;9.930;2023-01-26T04:54:31;20.77;;;8.40;;
72388;SDS011;60566;48.062;9.930;2023-01-26T04:56:56;21.45;;;7.35;;
72388;SDS011;60566;48.062;9.930;2023-01-26T04:59:23;18.48;;;7.65;;
72388;SDS011;60566;48.062;9.930;2023-01-26T05:01:48;21.40;;;7.75;;
72388;SDS011;60566;48.062;9.930;2023-01-26T05:04:14;25.27;;;8.73;;
72388;SDS011;60566;48.062;9.930;2023-01-26T05:06:39;21.35;;;9.10;;
72388;SDS011;60566;48.062;9.930;2023-01-26T05:09:04;27.40;;;7.68;;
72388;SDS011;60566;48.062;9.930;2023-01-26T05:11:30;25.85;;;9.40;;
72388;SDS011;60566;48.062;9.930;2023-01-26T05:13:55;24.38;;;9.27;;
72388;SDS011;60566;48.062;9.930;2023-01-26T05:16:22;25.02;;;9.18;;
72388;SDS011;60566;48.062;9.930;2023-01-26T05:18:47;22.95;;;8.15;;
72388;SDS011;60566;48.062;9.930;2023-01-26T05:21:13;24.90;;;9.30;;
72388;SDS011;60566;48.062;9.930;2023-01-26T05:23:38;26.67;;;9.45;;
72388;SDS011;60566;48.062;9.930;2023-01-26T05:26:04;20.23;;;7.65;;
72388;SDS011;60566;48.062;9.930;2023-01-26T05:28:29;17.50;;;7.72;;
72388;SDS011;60566;48.062;9.930;2023-01-26T05:30:55;25.95;;;9.23;;
72388;SDS011;60566;48.062;9.930;2023-01-26T05:33:22;21.20;;;7.75;;
72388;SDS011;60566;48.062;9.930;2023-01-26T05:35:47;26.73;;;9.25;;
72388;SDS011;60566;48.062;9.930;2023-01-26T05:38:12;21.45;;;7.97;;
72388;SDS011;60566;48.062;9.930;2023-01-26T05:40:38;21.35;;;8.80;;
72388;SDS011;60566;48.062;9.930;2023-01-26T05:43:03;22.25;;;8.40;;
72388;SDS011;60566;48.062;9.930;2023-01-26T05:45:28;22.13;;;8.98;;
72388;SDS011;60566;48.062;9.930;2023-01-26T05:47:54;29.80;;;9.43;;
72388;SDS011;60566;48.062;9.930;2023-01-26T05:50:21;24.92;;;8.98;;
72388;SDS011;60566;48.062;9.930;2023-01-26T05:52:46;25.63;;;9.07;;
72388;SDS011;60566;48.062;9.930;2023-01-26T05:55:11;24.90;;;8.48;;
72388;SDS011;60566;48.062;9.930;2023-01-26T05:57:37;22.50;;;8.63;;
72388;SDS011;60566;48.062;9.930;2023-01-26T06:00:02;27.20;;;8.95;;
72388;SDS011;60566;48.062;9.930;2023-01-26T06:02:28;23.95;;;8.90;;
72388;SDS011;60566;48.062;9.930;2023-01-26T06:04:54;26.38;;;9.05;;
72388;SDS011;60566;48.062;9.930;2023-01-26T06:07:20;23.98;;;8.48;;
72388;SDS011;60566;48.062;9.930;2023-01-26T06:09:46;28.15;;;9.82;;
72388;SDS011;60566;48.062;9.930;2023-01-26T06:12:12;24.42;;;8.63;;
72388;SDS011;60566;48.062;9.930;2023-01-26T06:14:39;26.33;;;8.70;;
72388;SDS011;60566;48.062;9.930;2023-01-26T06:17:05;24.45;;;9.25;;
72388;SDS011;60566;48.062;9.930;2023-01-26T06:19:30;24.55;;;9.68;;
72388;SDS011;60566;48.062;9.930;2023-01-26T06:21:55;24.45;;;9.30;;
72388;SDS011;60566;48.062;9.930;2023-01-26T06:24:22;26.25;;;9.20;;
72388;SDS011;60566;48.062;9.930;2023-01-26T06:26:48;26.00;;;9.07;;
72388;SDS011;60566;48.062;9.930;2023-01-26T06:29:13;29.60;;;8.75;;
72388;SDS011;60566;48.062;9.930;2023-01-26T06:31:39;25.73;;;8.68;;
72388;SDS011;60566;48.062;9.930;2023-01-26T06:34:04;23.55;;;8.38;;
72388;SDS011;60566;48.062;9.930;2023-01-26T06:36:29;26.42;;;10.25;;
72388;SDS011;60566;48.062;9.930;2023-01-26T06:38:55;27.48;;;8.63;;
72388;SDS011;60566;48.062;9.930;2023-01-26T06:41:22;21.17;;;9.43;;
72388;SDS011;60566;48.062;9.930;2023-01-26T06:43:47;20.90;;;7.63;;
72388;SDS011;60566;48.062;9.930;2023-01-26T06:46:13;21.73;;;8.25;;
72388;SDS011;60566;48.062;9.930;2023-01-26T06:48:39;25.25;;;8.30;;
72388;SDS011;60566;48.062;9.930;2023-01-26T06:54:02;27.35;;;8.90;;
72388;SDS011;60566;48.062;9.930;2023-01-26T06:56:29;28.60;;;10.07;;
72388;SDS011;60566;48.062;9.930;2023-01-26T06:58:54;26.40;;;9.00;;
72388;SDS011;60566;48.062;9.930;2023-01-26T07:01:21;26.30;;;8.32;;
72388;SDS011;60566;48.062;9.930;2023-01-26T07:03:48;18.75;;;7.47;;
72388;SDS011;60566;48.062;9.930;2023-01-26T07:06:13;24.38;;;8.50;;
72388;SDS011;60566;48.062;9.930;2023-01-26T07:08:39;24.08;;;7.90;;
72388;SDS011;60566;48.062;9.930;2023-01-26T07:11:04;24.40;;;8.32;;
72388;SDS011;60566;48.062;9.930;2023-01-26T07:13:32;23.50;;;9.32;;
72388;SDS011;60566;48.062;9.930;2023-01-26T07:15:59;27.45;;;8.60;;
72388;SDS011;60566;48.062;9.930;2023-01-26T07:18:24;27.35;;;8.27;;
72388;SDS011;60566;48.062;9.930;2023-01-26T07:20:50;22.30;;;8.45;;
72388;SDS011;60566;48.062;9.930;2023-01-26T07:23:15;22.50;;;8.48;;
72388;SDS011;60566;48.062;9.930;2023-01-26T07:25:41;21.50;;;8.38;;
72388;SDS011;60566;48.062;9.930;2023-01-26T07:28:07;22.50;;;8.27;;
72388;SDS011;60566;48.062;9.930;2023-01-26T07:30:34;25.17;;;8.70;;
72388;SDS011;60566;48.062;9.930;2023-01-26T07:32:59;23.25;;;8.50;;
72388;SDS011;60566;48.062;9.930;2023-01-26T07:35:24;24.95;;;8.35;;
72388;SDS011;60566;48.062;9.930;2023-01-26T07:37:50;22.15;;;8.13;;
72388;SDS011;60566;48.062;9.930;2023-01-26T07:40:15;23.42;;;8.10;;
72388;SDS011;60566;48.062;9.930;2023-01-26T07:42:41;19.88;;;8.68;;
72388;SDS011;60566;48.062;9.930;2023-01-26T07:45:07;21.08;;;8.65;;
72388;SDS011;60566;48.062;9.930;2023-01-26T07:47:34;21.85;;;7.80;;
72388;SDS011;60566;48.062;9.930;2023-01-26T07:49:59;22.70;;;8.43;;
72388;SDS011;60566;48.062;9.930;2023-01-26T07:52:25;22.10;;;8.25;;
72388;SDS011;60566;48.062;9.930;2023-01-26T07:54:50;26.42;;;9.18;;
72388;SDS011;60566;48.062;9.930;2023-01-26T07:57:15;25.67;;;8.38;;
72388;SDS011;60566;48.062;9.930;2023-01-26T07:59:41;25.92;;;9.02;;
72388;SDS011;60566;48.062;9.930;2023-01-26T08:02:07;24.10;;;7.70;;
72388;SDS011;60566;48.062;9.930;2023-01-26T08:04:34;19.65;;;6.85;;
72388;SDS011;60566;48.062;9.930;2023-01-26T08:07:00;18.25;;;8.18;;
72388;SDS011;60566;48.062;9.930;2023-01-26T08:09:25;27.10;;;8.93;;
72388;SDS011;60566;48.062;9.930;2023-01-26T08:11:50;24.65;;;8.13;;
72388;SDS011;60566;48.062;9.930;2023-01-26T08:14:16;17.95;;;7.38;;
72388;SDS011;60566;48.062;9.930;2023-01-26T08:16:41;19.25;;;6.82;;
72388;SDS011;60566;48.062;9.930;2023-01-26T08:19:07;19.00;;;7.10;;
72388;SDS011;60566;48.062;9.930;2023-01-26T08:21:33;20.65;;;7.40;;
72388;SDS011;60566;48.062;9.930;2023-01-26T08:23:59;23.25;;;8.52;;
72388;SDS011;60566;48.062;9.930;2023-01-26T08:26:24;21.05;;;7.45;;
72388;SDS011;60566;48.062;9.930;2023-01-26T08:28:49;23.75;;;8.88;;
72388;SDS011;60566;48.062;9.930;2023-01-26T08:31:15;26.33;;;8.48;;
72388;SDS011;60566;48.062;9.930;2023-01-26T08:33:42;20.95;;;6.90;;
72388;SDS011;60566;48.062;9.930;2023-01-26T08:36:09;21.08;;;7.88;;
72388;SDS011;60566;48.062;9.930;2023-01-26T08:38:37;19.70;;;7.70;;
72388;SDS011;60566;48.062;9.930;2023-01-26T08:41:03;24.40;;;8.45;;
72388;SDS011;60566;48.062;9.930;2023-01-26T08:43:29;23.58;;;8.05;;
72388;SDS011;60566;48.062;9.930;2023-01-26T08:45:54;21.88;;;7.65;;
72388;SDS011;60566;48.062;9.930;2023-01-26T08:48:20;20.65;;;9.20;;
72388;SDS011;60566;48.062;9.930;2023-01-26T08:50:45;22.65;;;9.30;;
72388;SDS011;60566;48.062;9.930;2023-01-26T08:53:11;20.52;;;8.13;;
72388;SDS011;60566;48.062;9.930;2023-01-26T08:55:37;23.40;;;9.65;;
72388;SDS011;60566;48.062;9.930;2023-01-26T08:58:03;21.63;;;8.63;;
72388;SDS011;60566;48.062;9.930;2023-01-26T09:00:28;25.13;;;7.30;;
72388;SDS011;60566;48.062;9.930;2023-01-26T09:02:57;23.33;;;8.07;;
72388;SDS011;60566;48.062;9.930;2023-01-26T09:05:23;22.02;;;7.00;;
72388;SDS011;60566;48.062;9.930;2023-01-26T09:07:48;22.63;;;8.32;;
72388;SDS011;60566;48.062;9.930;2023-01-26T09:10:14;21.45;;;7.45;;
72388;SDS011;60566;48.062;9.930;2023-01-26T09:12:41;23.90;;;8.85;;
72388;SDS011;60566;48.062;9.930;2023-01-26T09:15:07;21.80;;;8.15;;
72388;SDS011;60566;48.062;9.930;2023-01-26T09:17:33;19.45;;;7.43;;
72388;SDS011;60566;48.062;9.930;2023-01-26T09:19:58;24.75;;;8.55;;
72388;SDS011;60566;48.062;9.930;2023-01-26T09:22:23;19.48;;;8.18;;
72388;SDS011;60566;48.062;9.930;2023-01-26T09:24:49;22.98;;;6.90;;
72388;SDS011;60566;48.062;9.930;2023-01-26T09:27:14;17.70;;;6.65;;
72388;SDS011;60566;48.062;9.930;2023-01-26T09:29:41;19.27;;;7.78;;
72388;SDS011;60566;48.062;9.930;2023-01-26T09:32:06;19.27;;;6.95;;
72388;SDS011;60566;48.062;9.930;2023-01-26T09:34:32;22.58;;;8.18;;
72388;SDS011;60566;48.062;9.930;2023-01-26T09:36:57;16.42;;;7.30;;
72388;SDS011;60566;48.062;9.930;2023-01-26T09:39:22;19.23;;;7.10;;
72388;SDS011;60566;48.062;9.930;2023-01-26T09:41:51;17.67;;;6.88;;
72388;SDS011;60566;48.062;9.930;2023-01-26T09:44:23;20.70;;;8.60;;
72388;SDS011;60566;48.062;9.930;2023-01-26T09:46:56;22.65;;;8.00;;
72388;SDS011;60566;48.062;9.930;2023-01-26T09:49:27;20.33;;;7.45;;
72388;SDS011;60566;48.062;9.930;2023-01-26T09:51:57;20.40;;;7.50;;
72388;SDS011;60566;48.062;9.930;2023-01-26T09:54:28;18.85;;;6.90;;
72388;SDS011;60566;48.062;9.930;2023-01-26T09:56:56;19.00;;;7.20;;
72388;SDS011;60566;48.062;9.930;2023-01-26T09:59:26;18.55;;;6.28;;
72388;SDS011;60566;48.062;9.930;2023-01-26T10:01:57;20.38;;;7.30;;
72388;SDS011;60566;48.062;9.930;2023-01-26T10:04:27;18.48;;;7.25;;
72388;SDS011;60566;48.062;9.930;2023-01-26T10:09:21;19.80;;;8.17;;
72388;SDS011;60566;48.062;9.930;2023-01-26T10:11:48;18.45;;;7.10;;
72388;SDS011;60566;48.062;9.930;2023-01-26T10:14:18;18.27;;;7.07;;
72388;SDS011;60566;48.062;9.930;2023-01-26T10:16:46;23.05;;;7.70;;
72388;SDS011;60566;48.062;9.930;2023-01-26T10:19:15;23.13;;;9.13;;
72388;SDS011;60566;48.062;9.930;2023-01-26T10:21:44;21.38;;;7.20;;
72388;SDS011;60566;48.062;9.930;2023-01-26T10:24:11;16.02;;;7.07;;
72388;SDS011;60566;48.062;9.930;2023-01-26T10:26:37;18.55;;;6.97;;
72388;SDS011;60566;48.062;9.930;2023-01-26T10:29:03;16.88;;;6.90;;
72388;SDS011;60566;48.062;9.930;2023-01-26T10:31:29;17.45;;;5.45;;
72388;SDS011;60566;48.062;9.930;2023-01-26T10:33:56;19.50;;;6.30;;
72388;SDS011;60566;48.062;9.930;2023-01-26T10:36:24;14.90;;;6.60;;
72388;SDS011;60566;48.062;9.930;2023-01-26T10:38:54;22.85;;;8.15;;
72388;SDS011;60566;48.062;9.930;2023-01-26T10:41:27;22.10;;;7.72;;
72388;SDS011;60566;48.062;9.930;2023-01-26T10:43:54;20.70;;;7.82;;
72388;SDS011;60566;48.062;9.930;2023-01-26T10:46:24;24.52;;;8.63;;
72388;SDS011;60566;48.062;9.930;2023-01-26T10:48:56;19.35;;;7.35;;
72388;SDS011;60566;48.062;9.930;2023-01-26T10:51:26;19.27;;;7.68;;
72388;SDS011;60566;48.062;9.930;2023-01-26T10:56:44;17.00;;;7.00;;
72388;SDS011;60566;48.062;9.930;2023-01-26T10:59:12;18.92;;;6.82;;
72388;SDS011;60566;48.062;9.930;2023-01-26T11:01:51;16.77;;;6.55;;
72388;SDS011;60566;48.062;9.930;2023-01-26T11:04:17;15.57;;;7.22;;
72388;SDS011;60566;48.062;9.930;2023-01-26T11:06:44;16.33;;;5.93;;
72388;SDS011;60566;48.062;9.930;2023-01-26T11:09:10;16.83;;;6.65;;
72388;SDS011;60566;48.062;9.930;2023-01-26T11:11:43;16.02;;;5.43;;
72388;SDS011;60566;48.062;9.930;2023-01-26T11:14:19;15.20;;;5.53;;
72388;SDS011;60566;48.062;9.930;2023-01-26T11:16:45;14.35;;;5.45;;
72388;SDS011;60566;48.062;9.930;2023-01-26T11:19:12;11.57;;;4.47;;
72388;SDS011;60566;48.062;9.930;2023-01-26T11:21:39;13.43;;;5.40;;
72388;SDS011;60566;48.062;9.930;2023-01-26T11:24:08;12.07;;;4.93;;
72388;SDS011;60566;48.062;9.930;2023-01-26T11:29:32;14.05;;;5.28;;
72388;SDS011;60566;48.062;9.930;2023-01-26T11:32:05;12.65;;;5.13;;
72388;SDS011;60566;48.062;9.930;2023-01-26T11:34:38;13.60;;;6.75;;
72388;SDS011;60566;48.062;9.930;2023-01-26T11:37:16;15.63;;;7.05;;
72388;SDS011;60566;48.062;9.930;2023-01-26T11:42:24;12.40;;;6.53;;
72388;SDS011;60566;48.062;9.930;2023-01-26T11:44:57;15.20;;;5.88;;
72388;SDS011;60566;48.062;9.930;2023-01-26T11:47:34;13.90;;;5.35;;
72388;SDS011;60566;48.062;9.930;2023-01-26T11:50:19;41.67;;;20.60;;
72388;SDS011;60566;48.062;9.930;2023-01-26T11:52:51;29.02;;;13.32;;
72388;SDS011;60566;48.062;9.930;2023-01-26T11:55:35;58.97;;;28.73;;
72388;SDS011;60566;48.062;9.930;2023-01-26T11:58:10;51.08;;;23.02;;
72388;SDS011;60566;48.062;9.930;2023-01-26T12:00:46;14.82;;;6.45;;
72388;SDS011;60566;48.062;9.930;2023-01-26T12:03:14;13.65;;;5.70;;
72388;SDS011;60566;48.062;9.930;2023-01-26T12:05:43;17.83;;;6.80;;
72388;SDS011;60566;48.062;9.930;2023-01-26T12:08:11;16.33;;;6.13;;
72388;SDS011;60566;48.062;9.930;2023-01-26T12:10:44;17.42;;;6.55;;
72388;SDS011;60566;48.062;9.930;2023-01-26T12:13:13;14.32;;;5.82;;
72388;SDS011;60566;48.062;9.930;2023-01-26T12:15:44;17.00;;;5.95;;
72388;SDS011;60566;48.062;9.930;2023-01-26T12:18:13;21.50;;;9.52;;
72388;SDS011;60566;48.062;9.930;2023-01-26T12:20:42;60.42;;;23.35;;
72388;SDS011;60566;48.062;9.930;2023-01-26T12:23:10;54.67;;;24.30;;
72388;SDS011;60566;48.062;9.930;2023-01-26T12:25:39;24.50;;;11.85;;
72388;SDS011;60566;48.062;9.930;2023-01-26T12:28:11;23.55;;;9.40;;
72388;SDS011;60566;48.062;9.930;2023-01-26T12:30:42;18.20;;;6.25;;
72388;SDS011;60566;48.062;9.930;2023-01-26T12:33:12;13.95;;;6.38;;
72388;SDS011;60566;48.062;9.930;2023-01-26T12:35:49;14.27;;;5.28;;
72388;SDS011;60566;48.062;9.930;2023-01-26T12:38:27;14.45;;;5.85;;
72388;SDS011;60566;48.062;9.930;2023-01-26T12:41:01;17.92;;;6.45;;
72388;SDS011;60566;48.062;9.930;2023-01-26T12:43:35;14.05;;;4.93;;
72388;SDS011;60566;48.062;9.930;2023-01-26T12:46:07;15.02;;;5.35;;
72388;SDS011;60566;48.062;9.930;2023-01-26T12:48:35;16.35;;;6.07;;
72388;SDS011;60566;48.062;9.930;2023-01-26T12:51:04;16.58;;;6.40;;
72388;SDS011;60566;48.062;9.930;2023-01-26T12:56:01;14.38;;;5.72;;
72388;SDS011;60566;48.062;9.930;2023-01-26T12:58:32;15.52;;;5.57;;
72388;SDS011;60566;48.062;9.930;2023-01-26T13:01:01;11.85;;;5.45;;
72388;SDS011;60566;48.062;9.930;2023-01-26T13:03:29;13.98;;;5.57;;
72388;SDS011;60566;48.062;9.930;2023-01-26T13:05:58;13.13;;;4.68;;
72388;SDS011;60566;48.062;9.930;2023-01-26T13:11:14;14.30;;;5.82;;
72388;SDS011;60566;48.062;9.930;2023-01-26T13:14:22;16.63;;;6.63;;
72388;SDS011;60566;48.062;9.930;2023-01-26T13:16:54;17.25;;;6.15;;
72388;SDS011;60566;48.062;9.930;2023-01-26T13:19:35;16.20;;;8.10;;
72388;SDS011;60566;48.062;9.930;2023-01-26T13:22:01;14.82;;;5.65;;
72388;SDS011;60566;48.062;9.930;2023-01-26T13:24:43;12.80;;;5.80;;
72388;SDS011;60566;48.062;9.930;2023-01-26T13:29:56;16.52;;;6.78;;
72388;SDS011;60566;48.062;9.930;2023-01-26T13:35:25;12.10;;;5.72;;
72388;SDS011;60566;48.062;9.930;2023-01-26T13:37:52;14.65;;;6.05;;
72388;SDS011;60566;48.062;9.930;2023-01-26T13:40:22;14.30;;;5.43;;
72388;SDS011;60566;48.062;9.930;2023-01-26T13:42:50;16.67;;;5.78;;
72388;SDS011;60566;48.062;9.930;2023-01-26T13:45:22;11.48;;;5.03;;
72388;SDS011;60566;48.062;9.930;2023-01-26T13:47:51;15.52;;;6.05;;
72388;SDS011;60566;48.062;9.930;2023-01-26T13:50:22;16.63;;;6.07;;
72388;SDS011;60566;48.062;9.930;2023-01-26T13:52:53;14.65;;;5.15;;
72388;SDS011;60566;48.062;9.930;2023-01-26T13:55:20;16.52;;;6.05;;
72388;SDS011;60566;48.062;9.930;2023-01-26T13:57:46;14.00;;;5.90;;
72388;SDS011;60566;48.062;9.930;2023-01-26T14:00:12;12.43;;;5.40;;
72388;SDS011;60566;48.062;9.930;2023-01-26T14:02:39;16.60;;;5.57;;
72388;SDS011;60566;48.062;9.930;2023-01-26T14:05:06;13.70;;;4.88;;
72388;SDS011;60566;48.062;9.930;2023-01-26T14:07:44;14.02;;;5.22;;
72388;SDS011;60566;48.062;9.930;2023-01-26T14:10:14;15.02;;;5.80;;
72388;SDS011;60566;48.062;9.930;2023-01-26T14:12:41;17.33;;;5.60;;
72388;SDS011;60566;48.062;9.930;2023-01-26T14:15:15;14.65;;;5.40;;
72388;SDS011;60566;48.062;9.930;2023-01-26T14:17:46;14.40;;;5.55;;
72388;SDS011;60566;48.062;9.930;2023-01-26T14:20:20;13.00;;;4.93;;
72388;SDS011;60566;48.062;9.930;2023-01-26T14:23:02;14.77;;;6.03;;
72388;SDS011;60566;48.062;9.930;2023-01-26T14:25:34;10.38;;;4.50;;
72388;SDS011;60566;48.062;9.930;2023-01-26T14:28:00;21.42;;;7.28;;
72388;SDS011;60566;48.062;9.930;2023-01-26T14:30:26;14.90;;;5.57;;
72388;SDS011;60566;48.062;9.930;2023-01-26T14:32:57;13.38;;;5.15;;
72388;SDS011;60566;48.062;9.930;2023-01-26T14:35:28;14.05;;;5.32;;
72388;SDS011;60566;48.062;9.930;2023-01-26T14:38:03;16.65;;;5.35;;
72388;SDS011;60566;48.062;9.930;2023-01-26T14:40:29;16.58;;;5.78;;
72388;SDS011;60566;48.062;9.930;2023-01-26T14:42:55;11.27;;;4.50;;
72388;SDS011;60566;48.062;9.930;2023-01-26T14:45:22;13.95;;;5.93;;
72388;SDS011;60566;48.062;9.930;2023-01-26T14:47:51;14.68;;;6.10;;
72388;SDS011;60566;48.062;9.930;2023-01-26T14:50:18;11.93;;;5.78;;
72388;SDS011;60566;48.062;9.930;2023-01-26T14:52:48;13.50;;;5.95;;
72388;SDS011;60566;48.062;9.930;2023-01-26T14:55:14;13.30;;;5.30;;
72388;SDS011;60566;48.062;9.930;2023-01-26T14:57:43;16.40;;;5.65;;
72388;SDS011;60566;48.062;9.930;2023-01-26T15:00:17;15.57;;;6.43;;